Wetterdaten: Woche 14.01.02 - 20.01.02 (KW3)
Datum Zeit Temperatur Luftfeuchte Luftdruck Regenmenge Wind Richtung Taupunkt Windchill
14.01.2002 00:00 -2.2 C 86 % 1030.4 hPa 0.0 l/m 1.4 km/h (1 Bft) O -4.2 C -2.5 C
14.01.2002 01:00 -2.1 C 86 % 1030.1 hPa 0.0 l/m 0.4 km/h (0 Bft) NO -4.1 C -2.2 C
14.01.2002 02:00 -2.0 C 85 % 1029.7 hPa 0.0 l/m 0.8 km/h (0 Bft) O-SO -4.1 C -2.0 C
14.01.2002 03:00 -2.0 C 84 % 1030.1 hPa 0.0 l/m 0.8 km/h (0 Bft) NO -4.3 C -2.1 C
14.01.2002 04:00 -1.9 C 84 % 1029.3 hPa 0.0 l/m 0.0 km/h (0 Bft) N -4.2 C -1.9 C
14.01.2002 05:00 -1.9 C 84 % 1029.3 hPa 0.0 l/m 0.1 km/h (0 Bft) N -4.2 C -1.9 C
14.01.2002 06:00 -2.0 C 84 % 1029.3 hPa 0.0 l/m 3.7 km/h (1 Bft) O-SO -4.3 C -3.2 C
14.01.2002 07:00 -2.0 C 84 % 1029.4 hPa 0.0 l/m 1.3 km/h (1 Bft) O -4.4 C -2.3 C
14.01.2002 08:00 -2.1 C 84 % 1030.2 hPa 0.0 l/m 6.6 km/h (2 Bft) O-SO -4.5 C -4.4 C
14.01.2002 09:00 -2.2 C 83 % 1030.4 hPa 0.0 l/m 1.2 km/h (1 Bft) O-NO -4.6 C -2.4 C
14.01.2002 10:00 -2.1 C 82 % 1030.4 hPa 0.0 l/m 0.2 km/h (0 Bft) NO -4.7 C -2.1 C
14.01.2002 11:00 -2.0 C 82 % 1030.4 hPa 0.0 l/m 0.3 km/h (0 Bft) N -4.7 C -2.0 C
14.01.2002 12:00 -2.0 C 81 % 1030.4 hPa 0.0 l/m 0.4 km/h (0 Bft) NO -4.8 C -2.1 C
14.01.2002 13:00 -1.9 C 81 % 1030.0 hPa 0.0 l/m 0.2 km/h (0 Bft) N -4.7 C -1.9 C
14.01.2002 14:00 -1.8 C 81 % 1029.3 hPa 0.0 l/m 0.1 km/h (0 Bft) N -4.6 C -1.8 C
14.01.2002 15:00 -1.9 C 82 % 1029.3 hPa 0.0 l/m 0.0 km/h (0 Bft) N -4.6 C -1.9 C
14.01.2002 16:00 -2.1 C 83 % 1029.3 hPa 0.0 l/m 0.8 km/h (0 Bft) O-NO -4.6 C -2.4 C
14.01.2002 17:00 -2.4 C 84 % 1030.4 hPa 0.0 l/m 1.6 km/h (1 Bft) O-SO -4.6 C -2.9 C
14.01.2002 18:00 -2.4 C 85 % 1030.3 hPa 0.0 l/m 0.7 km/h (0 Bft) O -4.6 C -2.6 C
14.01.2002 19:00 -2.5 C 85 % 1030.2 hPa 0.0 l/m 0.8 km/h (0 Bft) O -4.6 C -2.6 C
14.01.2002 20:00 -2.6 C 86 % 1029.3 hPa 0.0 l/m 0.4 km/h (0 Bft) NO -4.6 C -2.7 C
14.01.2002 21:00 -2.8 C 87 % 1029.3 hPa 0.0 l/m 1.0 km/h (0 Bft) O-SO -4.6 C -3.0 C
14.01.2002 22:00 -2.8 C 88 % 1029.3 hPa 0.0 l/m 0.0 km/h (0 Bft) N -4.6 C -2.8 C
14.01.2002 23:00 -2.9 C 86 % 1029.3 hPa 0.0 l/m 0.7 km/h (0 Bft) W-NW -4.8 C -3.1 C
15.01.2002 00:00 -3.4 C 83 % 1028.9 hPa 0.0 l/m 1.2 km/h (1 Bft) W -5.8 C -3.6 C
15.01.2002 01:00 -3.6 C 84 % 1028.3 hPa 0.0 l/m 0.0 km/h (0 Bft) N -5.9 C -3.6 C
15.01.2002 02:00 -3.6 C 85 % 1028.3 hPa 0.0 l/m 0.0 km/h (0 Bft) N -5.7 C -3.6 C
15.01.2002 03:00 -3.5 C 87 % 1027.3 hPa 0.0 l/m 0.8 km/h (0 Bft) SO -5.4 C -3.7 C
15.01.2002 04:00 -3.6 C 87 % 1026.9 hPa 0.0 l/m 2.3 km/h (1 Bft) O-SO -5.4 C -4.4 C
15.01.2002 05:00 -3.6 C 86 % 1026.2 hPa 0.0 l/m 0.7 km/h (0 Bft) O-SO -5.6 C -3.8 C
15.01.2002 06:00 -3.6 C 86 % 1026.2 hPa 0.0 l/m 0.7 km/h (0 Bft) O-SO -5.6 C -3.7 C
15.01.2002 07:00 -3.9 C 85 % 1026.2 hPa 0.0 l/m 5.5 km/h (1 Bft) O-SO -6.0 C -5.9 C
15.01.2002 08:00 -3.9 C 86 % 1026.2 hPa 0.0 l/m 7.5 km/h (2 Bft) O-SO -6.0 C -6.9 C
15.01.2002 09:00 -3.7 C 84 % 1026.2 hPa 0.0 l/m 7.4 km/h (2 Bft) O-SO -6.1 C -6.5 C
15.01.2002 10:00 -3.5 C 80 % 1025.7 hPa 0.0 l/m 2.4 km/h (1 Bft) SO -6.4 C -4.0 C
15.01.2002 11:00 -3.2 C 78 % 1025.0 hPa 0.0 l/m 5.4 km/h (1 Bft) O-SO -6.4 C -5.1 C
15.01.2002 12:00 -2.9 C 76 % 1023.8 hPa 0.0 l/m 0.9 km/h (0 Bft) O-SO -6.5 C -3.0 C
15.01.2002 13:00 -2.7 C 76 % 1022.8 hPa 0.0 l/m 1.0 km/h (0 Bft) W-SW -6.3 C -2.8 C
15.01.2002 14:00 -2.6 C 77 % 1022.0 hPa 0.0 l/m 0.2 km/h (0 Bft) O -6.1 C -2.6 C
15.01.2002 15:00 -2.7 C 79 % 1021.1 hPa 0.0 l/m 2.9 km/h (1 Bft) O-SO -5.8 C -3.6 C
15.01.2002 16:00 -2.8 C 81 % 1020.9 hPa 0.0 l/m 0.5 km/h (0 Bft) O-SO -5.6 C -2.9 C
15.01.2002 17:00 -2.8 C 82 % 1020.2 hPa 0.0 l/m 0.0 km/h (0 Bft) N -5.4 C -2.8 C
15.01.2002 18:00 -3.0 C 83 % 1020.0 hPa 0.0 l/m 1.2 km/h (1 Bft) O-SO -5.4 C -3.1 C
15.01.2002 19:00 -3.1 C 83 % 1019.9 hPa 0.0 l/m 5.7 km/h (1 Bft) O-SO -5.6 C -5.2 C
15.01.2002 20:00 -3.1 C 83 % 1019.9 hPa 0.0 l/m 2.3 km/h (1 Bft) O-SO -5.5 C -3.8 C
15.01.2002 21:00 -3.1 C 83 % 1019.9 hPa 0.0 l/m 2.6 km/h (1 Bft) O-SO -5.5 C -4.1 C
15.01.2002 22:00 -3.1 C 83 % 1019.9 hPa 0.0 l/m 2.1 km/h (1 Bft) O-SO -5.6 C -3.8 C
15.01.2002 23:00 -3.2 C 84 % 1019.9 hPa 0.0 l/m 1.2 km/h (1 Bft) O-SO -5.5 C -3.4 C
16.01.2002 00:00 -3.5 C 86 % 1019.9 hPa 0.0 l/m 0.3 km/h (0 Bft) SO -5.5 C -3.5 C
16.01.2002 01:00 -3.8 C 85 % 1019.9 hPa 0.0 l/m 1.1 km/h (0 Bft) W -5.9 C -4.1 C
16.01.2002 02:00 -4.0 C 84 % 1019.9 hPa 0.0 l/m 0.6 km/h (0 Bft) SO -6.3 C -4.0 C
16.01.2002 03:00 -4.0 C 82 % 1020.2 hPa 0.0 l/m 0.7 km/h (0 Bft) SO -6.6 C -4.2 C
16.01.2002 04:00 -3.8 C 82 % 1020.0 hPa 0.0 l/m 0.3 km/h (0 Bft) SO -6.5 C -3.8 C
16.01.2002 05:00 -3.7 C 82 % 1020.9 hPa 0.0 l/m 0.0 km/h (0 Bft) N -6.3 C -3.7 C
16.01.2002 06:00 -3.5 C 83 % 1020.9 hPa 0.0 l/m 0.0 km/h (0 Bft) N -6.0 C -3.5 C
16.01.2002 07:00 -3.5 C 84 % 1021.3 hPa 0.0 l/m 0.0 km/h (0 Bft) N -5.8 C -3.5 C
16.01.2002 08:00 -3.3 C 84 % 1022.2 hPa 0.0 l/m 0.2 km/h (0 Bft) SO -5.6 C -3.3 C
16.01.2002 09:00 -2.5 C 81 % 1023.0 hPa 0.0 l/m 1.4 km/h (1 Bft) O-SO -5.3 C -2.9 C
16.01.2002 10:00 -1.7 C 77 % 1023.8 hPa 0.0 l/m 0.2 km/h (0 Bft) O-SO -5.1 C -1.7 C
16.01.2002 11:00 -1.2 C 76 % 1024.1 hPa 0.0 l/m 0.4 km/h (0 Bft) O-SO -4.8 C -1.2 C
16.01.2002 12:00 -1.1 C 77 % 1024.1 hPa 0.0 l/m 0.7 km/h (0 Bft) W-NW -4.7 C -1.2 C
16.01.2002 13:00 -0.9 C 76 % 1024.1 hPa 0.0 l/m 0.4 km/h (0 Bft) W -4.6 C -0.9 C
16.01.2002 14:00 -0.7 C 76 % 1024.9 hPa 0.0 l/m 1.1 km/h (1 Bft) W -4.5 C -1.0 C
16.01.2002 15:00 -0.6 C 76 % 1025.1 hPa 0.0 l/m 0.0 km/h (0 Bft) N -4.3 C -0.6 C
16.01.2002 16:00 -0.8 C 77 % 1025.2 hPa 0.0 l/m 0.0 km/h (0 Bft) N -4.3 C -0.8 C
16.01.2002 17:00 -0.9 C 79 % 1026.0 hPa 0.0 l/m 0.0 km/h (0 Bft) N -4.1 C -0.9 C
16.01.2002 18:00 -1.0 C 80 % 1026.2 hPa 0.0 l/m 0.0 km/h (0 Bft) N -4.1 C -1.0 C
16.01.2002 19:00 -1.0 C 80 % 1027.2 hPa 0.0 l/m 0.0 km/h (0 Bft) N -3.9 C -1.0 C
16.01.2002 20:00 -1.3 C 83 % 1027.2 hPa 0.0 l/m 0.0 km/h (0 Bft) N -3.8 C -1.3 C
16.01.2002 21:00 -1.4 C 85 % 1027.2 hPa 0.0 l/m 0.0 km/h (0 Bft) N -3.6 C -1.4 C
16.01.2002 22:00 -1.3 C 84 % 1027.2 hPa 0.0 l/m 0.0 km/h (0 Bft) N -3.6 C -1.3 C
16.01.2002 23:00 -1.3 C 85 % 1027.4 hPa 0.0 l/m 0.0 km/h (0 Bft) N -3.5 C -1.3 C
17.01.2002 00:00 -1.1 C 85 % 1028.0 hPa 0.0 l/m 0.0 km/h (0 Bft) N -3.4 C -1.1 C
17.01.2002 01:00 -1.2 C 86 % 1027.5 hPa 0.0 l/m 0.0 km/h (0 Bft) N -3.3 C -1.2 C
17.01.2002 02:00 -1.2 C 86 % 1027.2 hPa 0.0 l/m 0.0 km/h (0 Bft) N -3.3 C -1.2 C
17.01.2002 03:00 -1.2 C 86 % 1027.2 hPa 0.0 l/m 0.0 km/h (0 Bft) N -3.3 C -1.2 C
17.01.2002 04:00 -1.2 C 86 % 1027.2 hPa 0.0 l/m 0.0 km/h (0 Bft) N -3.3 C -1.2 C
17.01.2002 05:00 -1.1 C 86 % 1027.2 hPa 0.0 l/m 0.0 km/h (0 Bft) N -3.2 C -1.1 C
17.01.2002 06:00 -1.1 C 87 % 1027.2 hPa 0.0 l/m 0.0 km/h (0 Bft) N -2.9 C -1.1 C
17.01.2002 07:00 -1.1 C 89 % 1027.2 hPa 0.0 l/m 0.0 km/h (0 Bft) N -2.8 C -1.1 C
17.01.2002 08:00 -1.0 C 91 % 1027.2 hPa 0.0 l/m 0.2 km/h (0 Bft) O-SO -2.4 C -1.0 C
17.01.2002 09:00 -0.5 C 88 % 1027.2 hPa 0.0 l/m 0.2 km/h (0 Bft) N -2.2 C -0.5 C
17.01.2002 10:00 0.1 C 86 % 1027.2 hPa 0.0 l/m 1.4 km/h (1 Bft) O-SO -2.0 C 0.1 C
17.01.2002 11:00 0.5 C 83 % 1027.2 hPa 0.0 l/m 0.7 km/h (0 Bft) W -2.1 C 0.4 C
17.01.2002 12:00 0.6 C 81 % 1027.1 hPa 0.0 l/m 4.4 km/h (1 Bft) O-SO -2.3 C -0.6 C
17.01.2002 13:00 0.6 C 81 % 1026.2 hPa 0.0 l/m 0.8 km/h (0 Bft) O-SO -2.4 C 0.4 C
17.01.2002 14:00 0.5 C 80 % 1025.8 hPa 0.0 l/m 0.7 km/h (0 Bft) O-SO -2.5 C 0.4 C
17.01.2002 15:00 0.3 C 81 % 1025.7 hPa 0.0 l/m 6.5 km/h (2 Bft) O-SO -2.5 C -1.6 C
17.01.2002 16:00 -0.2 C 83 % 1026.2 hPa 0.0 l/m 8.2 km/h (2 Bft) O-SO -2.7 C -2.8 C
17.01.2002 17:00 -0.5 C 84 % 1026.2 hPa 0.0 l/m 8.9 km/h (2 Bft) O-SO -2.9 C -3.5 C
17.01.2002 18:00 -0.4 C 82 % 1026.2 hPa 0.0 l/m 4.8 km/h (1 Bft) O-SO -3.1 C -1.9 C
17.01.2002 19:00 -0.3 C 80 % 1026.2 hPa 0.0 l/m 4.6 km/h (1 Bft) O-SO -3.2 C -1.7 C
17.01.2002 20:00 -0.5 C 81 % 1026.2 hPa 0.0 l/m 0.9 km/h (0 Bft) O-SO -3.4 C -0.6 C
17.01.2002 21:00 -0.6 C 81 % 1026.2 hPa 0.0 l/m 0.3 km/h (0 Bft) N -3.4 C -0.7 C
17.01.2002 22:00 -0.6 C 81 % 1026.2 hPa 0.0 l/m 0.1 km/h (0 Bft) N -3.5 C -0.6 C
17.01.2002 23:00 -0.8 C 82 % 1026.2 hPa 0.0 l/m 0.1 km/h (0 Bft) N -3.5 C -0.8 C
18.01.2002 00:00 -0.9 C 82 % 1026.2 hPa 0.0 l/m 0.0 km/h (0 Bft) N -3.5 C -0.9 C
18.01.2002 01:00 -1.0 C 84 % 1025.4 hPa 0.0 l/m 0.0 km/h (0 Bft) N -3.5 C -1.0 C
18.01.2002 02:00 -1.1 C 85 % 1025.1 hPa 0.0 l/m 0.1 km/h (0 Bft) N -3.4 C -1.1 C
18.01.2002 03:00 -1.1 C 85 % 1025.1 hPa 0.0 l/m 0.3 km/h (0 Bft) O-SO -3.3 C -1.2 C
18.01.2002 04:00 -1.1 C 85 % 1025.1 hPa 0.0 l/m 0.0 km/h (0 Bft) N -3.3 C -1.1 C
18.01.2002 05:00 -1.2 C 86 % 1025.1 hPa 0.0 l/m 1.7 km/h (1 Bft) O-SO -3.2 C -1.6 C
18.01.2002 06:00 -1.1 C 85 % 1025.3 hPa 0.0 l/m 0.7 km/h (0 Bft) O-SO -3.2 C -1.2 C
18.01.2002 07:00 -1.2 C 86 % 1026.2 hPa 0.0 l/m 0.2 km/h (0 Bft) O-SO -3.2 C -1.2 C
18.01.2002 08:00 -1.0 C 84 % 1026.2 hPa 0.0 l/m 0.1 km/h (0 Bft) O-SO -3.3 C -1.0 C
18.01.2002 09:00 -0.3 C 80 % 1026.5 hPa 0.0 l/m 0.5 km/h (0 Bft) O-SO -3.4 C -0.3 C
18.01.2002 10:00 0.3 C 68 % 1027.2 hPa 0.0 l/m 3.4 km/h (1 Bft) W -4.8 C -0.6 C
18.01.2002 11:00 0.8 C 67 % 1026.6 hPa 0.0 l/m 6.9 km/h (2 Bft) W -4.6 C -1.2 C
18.01.2002 12:00 2.1 C 62 % 1026.2 hPa 0.0 l/m 8.0 km/h (2 Bft) O-SO -4.4 C -0.1 C
18.01.2002 13:00 3.5 C 57 % 1025.8 hPa 0.0 l/m 6.8 km/h (2 Bft) O-SO -4.2 C 1.8 C
18.01.2002 14:00 3.2 C 57 % 1025.1 hPa 0.0 l/m 2.4 km/h (1 Bft) O-SO -4.4 C 2.6 C
18.01.2002 15:00 2.9 C 59 % 1025.1 hPa 0.0 l/m 1.7 km/h (1 Bft) W -4.2 C 2.6 C
18.01.2002 16:00 2.4 C 62 % 1025.1 hPa 0.0 l/m 0.4 km/h (0 Bft) W -4.2 C 2.4 C
18.01.2002 17:00 1.5 C 67 % 1025.1 hPa 0.0 l/m 0.0 km/h (0 Bft) N -4.0 C 1.5 C
18.01.2002 18:00 0.7 C 71 % 1025.1 hPa 0.0 l/m 3.6 km/h (1 Bft) O-SO -4.0 C 0.1 C
18.01.2002 19:00 -0.5 C 78 % 1025.1 hPa 0.0 l/m 0.5 km/h (0 Bft) SO -3.9 C -0.5 C
18.01.2002 20:00 -0.4 C 78 % 1025.1 hPa 0.0 l/m 1.6 km/h (1 Bft) O-SO -3.8 C -0.8 C
18.01.2002 21:00 -1.2 C 83 % 1025.1 hPa 0.0 l/m 4.8 km/h (1 Bft) O-SO -3.8 C -2.6 C
18.01.2002 22:00 -2.0 C 85 % 1025.1 hPa 0.0 l/m 5.4 km/h (1 Bft) O-SO -4.1 C -4.0 C
18.01.2002 23:00 -2.2 C 88 % 1025.1 hPa 0.0 l/m 7.2 km/h (2 Bft) O-SO -4.0 C -5.0 C
19.01.2002 00:00 -1.8 C 88 % 1025.1 hPa 0.0 l/m 5.9 km/h (2 Bft) O -3.5 C -3.9 C
19.01.2002 01:00 -2.2 C 87 % 1025.1 hPa 0.0 l/m 3.8 km/h (1 Bft) O-SO -4.1 C -3.4 C
19.01.2002 02:00 -3.2 C 89 % 1025.1 hPa 0.0 l/m 0.7 km/h (0 Bft) O-SO -4.7 C -3.3 C
19.01.2002 03:00 -3.7 C 89 % 1024.6 hPa 0.0 l/m 0.0 km/h (0 Bft) N -5.2 C -3.7 C
19.01.2002 04:00 -3.7 C 90 % 1024.1 hPa 0.0 l/m 0.5 km/h (0 Bft) N -5.1 C -3.7 C
19.01.2002 05:00 -3.2 C 91 % 1024.1 hPa 0.0 l/m 0.9 km/h (0 Bft) O -4.5 C -3.3 C
19.01.2002 06:00 -2.8 C 90 % 1024.1 hPa 0.0 l/m 0.0 km/h (0 Bft) N -4.1 C -2.8 C
19.01.2002 07:00 -2.6 C 89 % 1024.1 hPa 0.0 l/m 2.1 km/h (1 Bft) O-SO -4.1 C -2.8 C
19.01.2002 08:00 -2.3 C 87 % 1024.6 hPa 0.0 l/m 3.4 km/h (1 Bft) O-SO -4.1 C -3.3 C
19.01.2002 09:00 -1.3 C 78 % 1025.1 hPa 0.0 l/m 4.6 km/h (1 Bft) W -4.5 C -2.5 C
19.01.2002 10:00 -0.4 C 77 % 1025.1 hPa 0.0 l/m 5.3 km/h (1 Bft) SO -4.0 C -1.7 C
19.01.2002 11:00 0.6 C 74 % 1024.6 hPa 0.0 l/m 5.6 km/h (1 Bft) SO -3.5 C -0.8 C
19.01.2002 12:00 1.9 C 70 % 1024.1 hPa 0.0 l/m 7.0 km/h (2 Bft) O-SO -3.0 C 0.2 C
19.01.2002 13:00 2.4 C 68 % 1024.1 hPa 0.0 l/m 10.6 km/h (2 Bft) SO -2.9 C -0.3 C
19.01.2002 14:00 2.5 C 69 % 1024.1 hPa 0.0 l/m 7.6 km/h (2 Bft) SO -2.7 C 0.5 C
19.01.2002 15:00 1.2 C 85 % 1024.1 hPa 0.6 l/m 11.6 km/h (2 Bft) SO -1.1 C -2.2 C
19.01.2002 16:00 0.7 C 89 % 1024.6 hPa 0.3 l/m 11.5 km/h (2 Bft) SO -1.0 C -2.7 C
19.01.2002 17:00 0.5 C 91 % 1025.1 hPa 0.3 l/m 10.4 km/h (2 Bft) SO -0.8 C -2.7 C
19.01.2002 18:00 0.5 C 93 % 1026.1 hPa 0.0 l/m 6.9 km/h (2 Bft) SO -0.5 C -1.4 C
19.01.2002 19:00 0.8 C 91 % 1026.2 hPa 0.0 l/m 5.3 km/h (1 Bft) SO -0.5 C -0.7 C
19.01.2002 20:00 1.0 C 90 % 1026.5 hPa 0.0 l/m 5.0 km/h (1 Bft) SO -0.5 C -0.3 C
19.01.2002 21:00 1.2 C 88 % 1027.2 hPa 0.3 l/m 4.8 km/h (1 Bft) SO -0.5 C 0.1 C
19.01.2002 22:00 1.2 C 90 % 1027.2 hPa 0.0 l/m 7.3 km/h (2 Bft) SO -0.3 C -1.0 C
19.01.2002 23:00 1.3 C 89 % 1027.2 hPa 0.0 l/m 4.7 km/h (1 Bft) SO -0.3 C -0.1 C
20.01.2002 00:00 1.4 C 88 % 1027.2 hPa 0.0 l/m 4.4 km/h (1 Bft) SO -0.5 C 0.2 C
20.01.2002 01:00 1.9 C 87 % 1027.2 hPa 0.0 l/m 6.3 km/h (2 Bft) SO -0.0 C 0.3 C
20.01.2002 02:00 2.3 C 84 % 1027.2 hPa 0.0 l/m 8.0 km/h (2 Bft) SO -0.2 C 0.1 C
20.01.2002 03:00 2.1 C 84 % 1027.2 hPa 0.0 l/m 7.2 km/h (2 Bft) SO -0.4 C 0.2 C
20.01.2002 04:00 1.9 C 85 % 1027.8 hPa 0.0 l/m 3.6 km/h (1 Bft) SO -0.4 C 1.0 C
20.01.2002 05:00 1.4 C 88 % 1028.3 hPa 0.0 l/m 0.8 km/h (0 Bft) N-NW -0.3 C 1.2 C
20.01.2002 06:00 1.5 C 91 % 1028.3 hPa 0.0 l/m 3.6 km/h (1 Bft) SO 0.2 C 0.5 C
20.01.2002 07:00 1.6 C 91 % 1028.4 hPa 0.0 l/m 0.0 km/h (0 Bft) O-SO 0.3 C 1.6 C
20.01.2002 08:00 0.9 C 91 % 1028.5 hPa 0.0 l/m 3.4 km/h (1 Bft) O-SO -0.4 C -0.1 C
20.01.2002 09:00 1.1 C 90 % 1028.7 hPa 0.0 l/m 1.4 km/h (1 Bft) O-SO -0.3 C 0.7 C
20.01.2002 10:00 3.4 C 80 % 1029.0 hPa 0.0 l/m 2.5 km/h (1 Bft) O-SO 0.2 C 2.9 C
20.01.2002 11:00 4.9 C 76 % 1028.9 hPa 0.0 l/m 2.8 km/h (1 Bft) SO 1.0 C 4.4 C
20.01.2002 12:00 6.6 C 67 % 1028.2 hPa 0.0 l/m 8.4 km/h (2 Bft) W 0.9 C 5.0 C
20.01.2002 13:00 7.2 C 62 % 1027.2 hPa 0.0 l/m 4.4 km/h (1 Bft) SO 0.5 C 6.6 C
20.01.2002 14:00 7.5 C 60 % 1026.3 hPa 0.0 l/m 8.5 km/h (2 Bft) SO 0.4 C 6.1 C
20.01.2002 15:00 7.4 C 63 % 1026.2 hPa 0.0 l/m 5.9 km/h (2 Bft) W 0.9 C 6.4 C
20.01.2002 16:00 6.8 C 64 % 1026.2 hPa 0.0 l/m 3.2 km/h (1 Bft) W 0.4 C 6.4 C
20.01.2002 17:00 5.4 C 67 % 1026.2 hPa 0.0 l/m 3.6 km/h (1 Bft) SO -0.2 C 4.8 C
20.01.2002 18:00 4.4 C 71 % 1026.0 hPa 0.0 l/m 5.2 km/h (1 Bft) O-SO -0.4 C 3.4 C
20.01.2002 19:00 4.6 C 71 % 1026.1 hPa 0.0 l/m 7.8 km/h (2 Bft) SO -0.1 C 2.9 C
20.01.2002 20:00 4.6 C 71 % 1025.2 hPa 0.0 l/m 4.1 km/h (1 Bft) SO -0.3 C 3.9 C
20.01.2002 21:00 3.9 C 73 % 1025.2 hPa 0.0 l/m 4.4 km/h (1 Bft) S -0.6 C 3.1 C
20.01.2002 22:00 3.9 C 73 % 1025.2 hPa 0.0 l/m 1.6 km/h (1 Bft) SO -0.4 C 3.6 C
20.01.2002 23:00 4.4 C 74 % 1026.0 hPa 0.0 l/m 6.5 km/h (2 Bft) W 0.1 C 3.1 C
Min-Datum _ 16.01.02 18.01.02 15.01.02 - 14.01.02 - 15.01.02 15.01.02
_ Min-Zeit 03:26 13:25 17:19 - 00:00 - 11:43 10:28
Minimum _ -4.1 C 55 % 1019.9 hPa - 0.0 km/h (0 Bft) - -6.7 C -8.8 C
Max-Datum _ 20.01.02 19.01.02 14.01.02 19.01.02 20.01.02 - 20.01.02 20.01.02
_ Max-Zeit 14:03 18:08 00:00 15:08 19:55 - 11:36 14:03
Maximum _ 8.1 C 93 % 1030.4 hPa 0.6 l/m 24.5 km/h
SO (4 Bft)
- 1.3 C 8.1 C
Durchschnitt _ -0.7 C 81 % 1026.0 hPa #1.6 l/m 2.5 km/h (1 Bft) O-SO -3.5 C -1.3 C

Durchschnitt Minimum Temp.-1.0 C
Durchschnitt Maximum Temp.-0.4 C
© Kaiko 2002